sensor_id;sensor_type;location;lat;lon;timestamp;P1;durP1;ratioP1;P2;durP2;ratioP2
23416;SDS011;11881;42.432;25.632;2024-03-17T00:02:08;8.80;;;7.10;;
23416;SDS011;11881;42.432;25.632;2024-03-17T00:04:34;9.90;;;7.90;;
23416;SDS011;11881;42.432;25.632;2024-03-17T00:07:00;11.27;;;7.70;;
23416;SDS011;11881;42.432;25.632;2024-03-17T00:09:26;12.20;;;8.00;;
23416;SDS011;11881;42.432;25.632;2024-03-17T00:11:51;10.73;;;7.67;;
23416;SDS011;11881;42.432;25.632;2024-03-17T00:14:17;9.60;;;8.10;;
23416;SDS011;11881;42.432;25.632;2024-03-17T00:16:43;10.13;;;7.67;;
23416;SDS011;11881;42.432;25.632;2024-03-17T00:19:09;11.60;;;8.33;;
23416;SDS011;11881;42.432;25.632;2024-03-17T00:21:35;10.07;;;7.87;;
23416;SDS011;11881;42.432;25.632;2024-03-17T00:24:00;11.70;;;8.30;;
23416;SDS011;11881;42.432;25.632;2024-03-17T00:26:27;14.97;;;10.17;;
23416;SDS011;11881;42.432;25.632;2024-03-17T00:28:54;13.03;;;10.00;;
23416;SDS011;11881;42.432;25.632;2024-03-17T00:31:19;11.63;;;8.90;;
23416;SDS011;11881;42.432;25.632;2024-03-17T00:33:45;13.63;;;9.00;;
23416;SDS011;11881;42.432;25.632;2024-03-17T00:36:11;14.07;;;8.50;;
23416;SDS011;11881;42.432;25.632;2024-03-17T00:38:37;12.77;;;8.47;;
23416;SDS011;11881;42.432;25.632;2024-03-17T00:41:03;10.73;;;8.17;;
23416;SDS011;11881;42.432;25.632;2024-03-17T00:43:29;13.50;;;8.53;;
23416;SDS011;11881;42.432;25.632;2024-03-17T00:45:54;11.27;;;8.97;;
23416;SDS011;11881;42.432;25.632;2024-03-17T00:48:20;11.80;;;8.23;;
23416;SDS011;11881;42.432;25.632;2024-03-17T00:50:45;13.00;;;8.70;;
23416;SDS011;11881;42.432;25.632;2024-03-17T00:53:11;11.20;;;8.33;;
23416;SDS011;11881;42.432;25.632;2024-03-17T00:55:37;10.17;;;7.97;;
23416;SDS011;11881;42.432;25.632;2024-03-17T00:58:03;11.23;;;8.13;;
23416;SDS011;11881;42.432;25.632;2024-03-17T01:00:29;12.17;;;8.80;;
23416;SDS011;11881;42.432;25.632;2024-03-17T01:02:54;12.53;;;8.03;;
23416;SDS011;11881;42.432;25.632;2024-03-17T01:05:21;13.33;;;9.20;;
23416;SDS011;11881;42.432;25.632;2024-03-17T01:07:46;12.13;;;8.43;;
23416;SDS011;11881;42.432;25.632;2024-03-17T01:10:15;11.13;;;8.77;;
23416;SDS011;11881;42.432;25.632;2024-03-17T01:12:40;13.87;;;8.13;;
23416;SDS011;11881;42.432;25.632;2024-03-17T01:15:06;11.63;;;9.00;;
23416;SDS011;11881;42.432;25.632;2024-03-17T01:17:33;12.73;;;8.57;;
23416;SDS011;11881;42.432;25.632;2024-03-17T01:19:59;11.77;;;8.80;;
23416;SDS011;11881;42.432;25.632;2024-03-17T01:22:24;11.30;;;8.27;;
23416;SDS011;11881;42.432;25.632;2024-03-17T01:24:50;13.00;;;8.73;;
23416;SDS011;11881;42.432;25.632;2024-03-17T01:27:15;12.10;;;8.10;;
23416;SDS011;11881;42.432;25.632;2024-03-17T01:29:44;12.70;;;8.07;;
23416;SDS011;11881;42.432;25.632;2024-03-17T01:32:10;10.93;;;8.13;;
23416;SDS011;11881;42.432;25.632;2024-03-17T01:34:36;10.90;;;7.90;;
23416;SDS011;11881;42.432;25.632;2024-03-17T01:37:02;11.80;;;8.80;;
23416;SDS011;11881;42.432;25.632;2024-03-17T01:39:29;13.43;;;8.57;;
23416;SDS011;11881;42.432;25.632;2024-03-17T01:41:55;11.23;;;8.07;;
23416;SDS011;11881;42.432;25.632;2024-03-17T01:44:22;11.67;;;8.33;;
23416;SDS011;11881;42.432;25.632;2024-03-17T01:46:49;13.07;;;8.23;;
23416;SDS011;11881;42.432;25.632;2024-03-17T01:49:16;12.63;;;8.57;;
23416;SDS011;11881;42.432;25.632;2024-03-17T01:51:42;11.90;;;8.77;;
23416;SDS011;11881;42.432;25.632;2024-03-17T01:54:08;13.63;;;8.53;;
23416;SDS011;11881;42.432;25.632;2024-03-17T01:56:34;11.73;;;8.47;;
23416;SDS011;11881;42.432;25.632;2024-03-17T01:59:00;13.63;;;8.70;;
23416;SDS011;11881;42.432;25.632;2024-03-17T02:01:26;14.57;;;8.43;;
23416;SDS011;11881;42.432;25.632;2024-03-17T02:03:52;11.53;;;8.10;;
23416;SDS011;11881;42.432;25.632;2024-03-17T02:06:17;11.00;;;8.33;;
23416;SDS011;11881;42.432;25.632;2024-03-17T02:08:50;12.70;;;8.63;;
23416;SDS011;11881;42.432;25.632;2024-03-17T02:11:23;16.43;;;9.53;;
23416;SDS011;11881;42.432;25.632;2024-03-17T02:13:53;14.93;;;9.33;;
23416;SDS011;11881;42.432;25.632;2024-03-17T02:16:19;13.97;;;8.50;;
23416;SDS011;11881;42.432;25.632;2024-03-17T02:18:45;13.00;;;8.57;;
23416;SDS011;11881;42.432;25.632;2024-03-17T02:21:11;14.23;;;8.93;;
23416;SDS011;11881;42.432;25.632;2024-03-17T02:23:37;13.43;;;9.37;;
23416;SDS011;11881;42.432;25.632;2024-03-17T02:26:03;13.43;;;8.67;;
23416;SDS011;11881;42.432;25.632;2024-03-17T02:28:29;12.23;;;8.50;;
23416;SDS011;11881;42.432;25.632;2024-03-17T02:30:54;15.50;;;9.67;;
23416;SDS011;11881;42.432;25.632;2024-03-17T02:33:19;15.20;;;9.77;;
23416;SDS011;11881;42.432;25.632;2024-03-17T02:35:48;12.97;;;10.03;;
23416;SDS011;11881;42.432;25.632;2024-03-17T02:38:16;14.33;;;9.37;;
23416;SDS011;11881;42.432;25.632;2024-03-17T02:41:02;14.70;;;10.20;;
23416;SDS011;11881;42.432;25.632;2024-03-17T02:43:27;15.10;;;9.53;;
23416;SDS011;11881;42.432;25.632;2024-03-17T02:45:53;14.10;;;9.20;;
23416;SDS011;11881;42.432;25.632;2024-03-17T02:48:18;10.70;;;8.50;;
23416;SDS011;11881;42.432;25.632;2024-03-17T02:50:45;11.60;;;8.27;;
23416;SDS011;11881;42.432;25.632;2024-03-17T02:53:10;13.07;;;9.30;;
23416;SDS011;11881;42.432;25.632;2024-03-17T02:55:36;12.13;;;9.10;;
23416;SDS011;11881;42.432;25.632;2024-03-17T02:58:01;13.63;;;9.33;;
23416;SDS011;11881;42.432;25.632;2024-03-17T03:00:27;16.70;;;9.13;;
23416;SDS011;11881;42.432;25.632;2024-03-17T03:02:52;15.20;;;9.50;;
23416;SDS011;11881;42.432;25.632;2024-03-17T03:05:17;15.67;;;9.63;;
23416;SDS011;11881;42.432;25.632;2024-03-17T03:07:43;18.00;;;10.03;;
23416;SDS011;11881;42.432;25.632;2024-03-17T03:10:08;13.87;;;9.97;;
23416;SDS011;11881;42.432;25.632;2024-03-17T03:12:35;16.07;;;10.20;;
23416;SDS011;11881;42.432;25.632;2024-03-17T03:15:01;17.47;;;9.73;;
23416;SDS011;11881;42.432;25.632;2024-03-17T03:17:26;13.90;;;9.87;;
23416;SDS011;11881;42.432;25.632;2024-03-17T03:19:52;13.93;;;9.43;;
23416;SDS011;11881;42.432;25.632;2024-03-17T03:22:17;13.93;;;9.77;;
23416;SDS011;11881;42.432;25.632;2024-03-17T03:24:43;16.43;;;10.50;;
23416;SDS011;11881;42.432;25.632;2024-03-17T03:27:08;12.90;;;9.63;;
23416;SDS011;11881;42.432;25.632;2024-03-17T03:29:34;15.37;;;10.40;;
23416;SDS011;11881;42.432;25.632;2024-03-17T03:31:59;15.60;;;9.47;;
23416;SDS011;11881;42.432;25.632;2024-03-17T03:34:25;12.47;;;9.13;;
23416;SDS011;11881;42.432;25.632;2024-03-17T03:36:50;13.63;;;9.67;;
23416;SDS011;11881;42.432;25.632;2024-03-17T03:39:17;13.40;;;9.00;;
23416;SDS011;11881;42.432;25.632;2024-03-17T03:41:43;15.80;;;9.47;;
23416;SDS011;11881;42.432;25.632;2024-03-17T03:44:09;15.10;;;10.10;;
23416;SDS011;11881;42.432;25.632;2024-03-17T03:46:35;16.57;;;9.97;;
23416;SDS011;11881;42.432;25.632;2024-03-17T03:49:01;14.67;;;9.83;;
23416;SDS011;11881;42.432;25.632;2024-03-17T03:51:26;13.67;;;9.33;;
23416;SDS011;11881;42.432;25.632;2024-03-17T03:53:52;14.53;;;10.13;;
23416;SDS011;11881;42.432;25.632;2024-03-17T03:56:17;13.80;;;9.80;;
23416;SDS011;11881;42.432;25.632;2024-03-17T03:58:43;14.20;;;9.60;;
23416;SDS011;11881;42.432;25.632;2024-03-17T04:01:11;14.43;;;9.93;;
23416;SDS011;11881;42.432;25.632;2024-03-17T04:03:36;15.47;;;10.27;;
23416;SDS011;11881;42.432;25.632;2024-03-17T04:06:03;13.83;;;10.27;;
23416;SDS011;11881;42.432;25.632;2024-03-17T04:08:30;16.67;;;11.20;;
23416;SDS011;11881;42.432;25.632;2024-03-17T04:10:56;18.77;;;11.83;;
23416;SDS011;11881;42.432;25.632;2024-03-17T04:13:21;20.60;;;13.47;;
23416;SDS011;11881;42.432;25.632;2024-03-17T04:15:47;19.73;;;13.30;;
23416;SDS011;11881;42.432;25.632;2024-03-17T04:18:13;20.93;;;13.17;;
23416;SDS011;11881;42.432;25.632;2024-03-17T04:20:41;17.07;;;12.17;;
23416;SDS011;11881;42.432;25.632;2024-03-17T04:23:06;16.07;;;12.07;;
23416;SDS011;11881;42.432;25.632;2024-03-17T04:25:32;16.53;;;12.07;;
23416;SDS011;11881;42.432;25.632;2024-03-17T04:27:58;17.77;;;12.10;;
23416;SDS011;11881;42.432;25.632;2024-03-17T04:30:23;16.37;;;11.30;;
23416;SDS011;11881;42.432;25.632;2024-03-17T04:32:49;19.50;;;11.87;;
23416;SDS011;11881;42.432;25.632;2024-03-17T04:35:15;17.07;;;11.40;;
23416;SDS011;11881;42.432;25.632;2024-03-17T04:37:40;18.93;;;11.73;;
23416;SDS011;11881;42.432;25.632;2024-03-17T04:40:06;17.67;;;11.77;;
23416;SDS011;11881;42.432;25.632;2024-03-17T04:42:34;18.17;;;11.37;;
23416;SDS011;11881;42.432;25.632;2024-03-17T04:45:00;24.37;;;11.63;;
23416;SDS011;11881;42.432;25.632;2024-03-17T04:47:26;20.20;;;11.77;;
23416;SDS011;11881;42.432;25.632;2024-03-17T04:49:51;16.53;;;11.97;;
23416;SDS011;11881;42.432;25.632;2024-03-17T04:52:17;18.90;;;11.77;;
23416;SDS011;11881;42.432;25.632;2024-03-17T04:54:43;17.53;;;11.70;;
23416;SDS011;11881;42.432;25.632;2024-03-17T04:57:09;15.67;;;10.90;;
23416;SDS011;11881;42.432;25.632;2024-03-17T04:59:35;17.70;;;12.17;;
23416;SDS011;11881;42.432;25.632;2024-03-17T05:02:01;20.10;;;12.10;;
23416;SDS011;11881;42.432;25.632;2024-03-17T05:04:27;17.43;;;10.37;;
23416;SDS011;11881;42.432;25.632;2024-03-17T05:06:53;17.33;;;10.40;;
23416;SDS011;11881;42.432;25.632;2024-03-17T05:09:19;17.53;;;11.13;;
23416;SDS011;11881;42.432;25.632;2024-03-17T05:11:44;16.30;;;10.37;;
23416;SDS011;11881;42.432;25.632;2024-03-17T05:14:10;18.00;;;10.00;;
23416;SDS011;11881;42.432;25.632;2024-03-17T05:16:36;15.57;;;10.77;;
23416;SDS011;11881;42.432;25.632;2024-03-17T05:19:02;16.67;;;11.40;;
23416;SDS011;11881;42.432;25.632;2024-03-17T05:21:28;19.20;;;11.13;;
23416;SDS011;11881;42.432;25.632;2024-03-17T05:23:55;16.47;;;10.97;;
23416;SDS011;11881;42.432;25.632;2024-03-17T05:26:22;17.03;;;10.70;;
23416;SDS011;11881;42.432;25.632;2024-03-17T05:28:49;17.73;;;10.97;;
23416;SDS011;11881;42.432;25.632;2024-03-17T05:31:15;17.43;;;11.07;;
23416;SDS011;11881;42.432;25.632;2024-03-17T05:33:43;14.83;;;10.90;;
23416;SDS011;11881;42.432;25.632;2024-03-17T05:36:08;18.40;;;11.20;;
23416;SDS011;11881;42.432;25.632;2024-03-17T05:38:34;17.00;;;11.47;;
23416;SDS011;11881;42.432;25.632;2024-03-17T05:41:00;20.90;;;11.27;;
23416;SDS011;11881;42.432;25.632;2024-03-17T05:43:30;18.10;;;11.93;;
23416;SDS011;11881;42.432;25.632;2024-03-17T05:48:33;17.13;;;11.20;;
23416;SDS011;11881;42.432;25.632;2024-03-17T05:51:03;20.47;;;10.83;;
23416;SDS011;11881;42.432;25.632;2024-03-17T05:53:28;16.67;;;11.73;;
23416;SDS011;11881;42.432;25.632;2024-03-17T05:55:54;19.57;;;11.20;;
23416;SDS011;11881;42.432;25.632;2024-03-17T05:58:20;20.57;;;12.33;;
23416;SDS011;11881;42.432;25.632;2024-03-17T06:00:45;27.90;;;11.97;;
23416;SDS011;11881;42.432;25.632;2024-03-17T06:03:11;19.63;;;12.07;;
23416;SDS011;11881;42.432;25.632;2024-03-17T06:05:38;19.53;;;11.90;;
23416;SDS011;11881;42.432;25.632;2024-03-17T06:08:08;22.10;;;12.30;;
23416;SDS011;11881;42.432;25.632;2024-03-17T06:10:34;18.13;;;11.80;;
23416;SDS011;11881;42.432;25.632;2024-03-17T06:13:01;21.70;;;12.50;;
23416;SDS011;11881;42.432;25.632;2024-03-17T06:15:28;23.73;;;12.63;;
23416;SDS011;11881;42.432;25.632;2024-03-17T06:17:53;23.13;;;13.50;;
23416;SDS011;11881;42.432;25.632;2024-03-17T06:20:20;26.63;;;14.70;;
23416;SDS011;11881;42.432;25.632;2024-03-17T06:22:46;29.13;;;16.90;;
23416;SDS011;11881;42.432;25.632;2024-03-17T06:25:12;27.90;;;16.97;;
23416;SDS011;11881;42.432;25.632;2024-03-17T06:27:38;26.03;;;15.83;;
23416;SDS011;11881;42.432;25.632;2024-03-17T06:30:04;23.80;;;15.83;;
23416;SDS011;11881;42.432;25.632;2024-03-17T06:32:31;21.57;;;15.57;;
23416;SDS011;11881;42.432;25.632;2024-03-17T06:34:58;23.33;;;16.00;;
23416;SDS011;11881;42.432;25.632;2024-03-17T06:37:24;26.43;;;15.73;;
23416;SDS011;11881;42.432;25.632;2024-03-17T06:39:50;22.47;;;15.50;;
23416;SDS011;11881;42.432;25.632;2024-03-17T06:42:15;22.47;;;14.50;;
23416;SDS011;11881;42.432;25.632;2024-03-17T06:44:41;23.73;;;14.00;;
23416;SDS011;11881;42.432;25.632;2024-03-17T06:47:07;24.57;;;14.40;;
23416;SDS011;11881;42.432;25.632;2024-03-17T06:49:32;18.77;;;13.07;;
23416;SDS011;11881;42.432;25.632;2024-03-17T06:51:58;27.10;;;14.60;;
23416;SDS011;11881;42.432;25.632;2024-03-17T06:54:23;25.03;;;15.50;;
23416;SDS011;11881;42.432;25.632;2024-03-17T06:56:49;21.93;;;14.50;;
23416;SDS011;11881;42.432;25.632;2024-03-17T06:59:16;23.77;;;13.77;;
23416;SDS011;11881;42.432;25.632;2024-03-17T07:01:42;22.20;;;14.60;;
23416;SDS011;11881;42.432;25.632;2024-03-17T07:04:09;20.70;;;13.53;;
23416;SDS011;11881;42.432;25.632;2024-03-17T07:06:35;29.00;;;15.07;;
23416;SDS011;11881;42.432;25.632;2024-03-17T07:09:01;21.97;;;14.60;;
23416;SDS011;11881;42.432;25.632;2024-03-17T07:11:27;20.47;;;13.53;;
23416;SDS011;11881;42.432;25.632;2024-03-17T07:13:53;26.47;;;14.37;;
23416;SDS011;11881;42.432;25.632;2024-03-17T07:16:18;25.90;;;14.20;;
23416;SDS011;11881;42.432;25.632;2024-03-17T07:18:46;24.83;;;14.83;;
23416;SDS011;11881;42.432;25.632;2024-03-17T07:21:11;22.60;;;13.67;;
23416;SDS011;11881;42.432;25.632;2024-03-17T07:23:37;25.53;;;14.47;;
23416;SDS011;11881;42.432;25.632;2024-03-17T07:26:03;23.23;;;14.33;;
23416;SDS011;11881;42.432;25.632;2024-03-17T07:28:32;22.70;;;14.93;;
23416;SDS011;11881;42.432;25.632;2024-03-17T07:30:58;22.20;;;14.30;;
23416;SDS011;11881;42.432;25.632;2024-03-17T07:33:27;22.30;;;14.47;;
23416;SDS011;11881;42.432;25.632;2024-03-17T07:35:54;23.80;;;14.17;;
23416;SDS011;11881;42.432;25.632;2024-03-17T07:38:25;22.00;;;13.77;;
23416;SDS011;11881;42.432;25.632;2024-03-17T07:40:56;23.60;;;14.40;;
23416;SDS011;11881;42.432;25.632;2024-03-17T07:43:23;22.80;;;13.67;;
23416;SDS011;11881;42.432;25.632;2024-03-17T07:48:24;23.10;;;14.27;;
23416;SDS011;11881;42.432;25.632;2024-03-17T07:50:57;25.77;;;14.70;;
23416;SDS011;11881;42.432;25.632;2024-03-17T07:53:23;22.23;;;14.10;;
23416;SDS011;11881;42.432;25.632;2024-03-17T07:58:29;24.37;;;15.00;;
23416;SDS011;11881;42.432;25.632;2024-03-17T08:01:13;24.33;;;15.07;;
23416;SDS011;11881;42.432;25.632;2024-03-17T08:03:41;25.23;;;15.00;;
23416;SDS011;11881;42.432;25.632;2024-03-17T08:06:09;27.13;;;16.20;;
23416;SDS011;11881;42.432;25.632;2024-03-17T08:08:38;29.13;;;16.80;;
23416;SDS011;11881;42.432;25.632;2024-03-17T08:11:04;24.43;;;15.13;;
23416;SDS011;11881;42.432;25.632;2024-03-17T08:13:30;29.03;;;16.47;;
23416;SDS011;11881;42.432;25.632;2024-03-17T08:16:00;24.13;;;15.93;;
23416;SDS011;11881;42.432;25.632;2024-03-17T08:18:27;22.53;;;15.47;;
23416;SDS011;11881;42.432;25.632;2024-03-17T08:20:54;23.37;;;15.13;;
23416;SDS011;11881;42.432;25.632;2024-03-17T08:23:20;23.73;;;15.93;;
23416;SDS011;11881;42.432;25.632;2024-03-17T08:25:52;23.10;;;14.80;;
23416;SDS011;11881;42.432;25.632;2024-03-17T08:28:19;23.97;;;16.13;;
23416;SDS011;11881;42.432;25.632;2024-03-17T08:30:50;24.83;;;15.30;;
23416;SDS011;11881;42.432;25.632;2024-03-17T08:33:17;21.77;;;14.07;;
23416;SDS011;11881;42.432;25.632;2024-03-17T08:35:52;25.43;;;16.43;;
23416;SDS011;11881;42.432;25.632;2024-03-17T08:38:21;26.50;;;16.00;;
23416;SDS011;11881;42.432;25.632;2024-03-17T08:40:48;24.23;;;16.23;;
23416;SDS011;11881;42.432;25.632;2024-03-17T08:43:18;25.30;;;15.60;;
23416;SDS011;11881;42.432;25.632;2024-03-17T08:45:45;19.37;;;13.50;;
23416;SDS011;11881;42.432;25.632;2024-03-17T08:48:19;20.57;;;14.03;;
23416;SDS011;11881;42.432;25.632;2024-03-17T08:50:49;20.27;;;13.63;;
23416;SDS011;11881;42.432;25.632;2024-03-17T08:53:19;21.13;;;14.77;;
23416;SDS011;11881;42.432;25.632;2024-03-17T08:55:44;22.03;;;15.10;;
23416;SDS011;11881;42.432;25.632;2024-03-17T08:58:10;21.50;;;14.60;;
23416;SDS011;11881;42.432;25.632;2024-03-17T09:00:36;21.50;;;14.77;;
23416;SDS011;11881;42.432;25.632;2024-03-17T09:03:02;20.57;;;14.83;;
23416;SDS011;11881;42.432;25.632;2024-03-17T09:05:28;21.90;;;14.67;;
23416;SDS011;11881;42.432;25.632;2024-03-17T09:07:53;21.27;;;13.00;;
23416;SDS011;11881;42.432;25.632;2024-03-17T09:10:20;18.10;;;12.80;;
23416;SDS011;11881;42.432;25.632;2024-03-17T09:12:46;19.23;;;12.90;;
23416;SDS011;11881;42.432;25.632;2024-03-17T09:15:12;17.70;;;13.07;;
23416;SDS011;11881;42.432;25.632;2024-03-17T09:17:39;20.73;;;14.37;;
23416;SDS011;11881;42.432;25.632;2024-03-17T09:20:06;21.93;;;14.73;;
23416;SDS011;11881;42.432;25.632;2024-03-17T09:22:36;20.63;;;14.13;;
23416;SDS011;11881;42.432;25.632;2024-03-17T09:25:06;19.53;;;13.33;;
23416;SDS011;11881;42.432;25.632;2024-03-17T09:27:33;22.50;;;13.27;;
23416;SDS011;11881;42.432;25.632;2024-03-17T09:30:04;20.70;;;13.53;;
23416;SDS011;11881;42.432;25.632;2024-03-17T09:32:34;18.00;;;12.23;;
23416;SDS011;11881;42.432;25.632;2024-03-17T09:35:00;18.13;;;12.40;;
23416;SDS011;11881;42.432;25.632;2024-03-17T09:37:26;18.70;;;12.47;;
23416;SDS011;11881;42.432;25.632;2024-03-17T09:39:52;19.43;;;12.70;;
23416;SDS011;11881;42.432;25.632;2024-03-17T09:42:18;19.60;;;12.57;;
23416;SDS011;11881;42.432;25.632;2024-03-17T09:44:47;17.53;;;11.60;;
23416;SDS011;11881;42.432;25.632;2024-03-17T09:47:18;30.03;;;17.00;;
23416;SDS011;11881;42.432;25.632;2024-03-17T09:49:48;18.97;;;13.50;;
23416;SDS011;11881;42.432;25.632;2024-03-17T09:52:21;17.17;;;11.83;;
23416;SDS011;11881;42.432;25.632;2024-03-17T09:54:55;17.27;;;11.97;;
23416;SDS011;11881;42.432;25.632;2024-03-17T09:57:24;17.73;;;11.97;;
23416;SDS011;11881;42.432;25.632;2024-03-17T09:59:51;17.00;;;12.13;;
23416;SDS011;11881;42.432;25.632;2024-03-17T10:02:18;20.30;;;12.53;;
23416;SDS011;11881;42.432;25.632;2024-03-17T10:04:43;16.13;;;12.17;;
23416;SDS011;11881;42.432;25.632;2024-03-17T10:07:09;19.30;;;13.07;;
23416;SDS011;11881;42.432;25.632;2024-03-17T10:09:35;17.57;;;11.70;;
23416;SDS011;11881;42.432;25.632;2024-03-17T10:12:01;15.13;;;11.00;;
23416;SDS011;11881;42.432;25.632;2024-03-17T10:14:27;16.00;;;11.00;;
23416;SDS011;11881;42.432;25.632;2024-03-17T10:16:53;16.20;;;11.70;;
23416;SDS011;11881;42.432;25.632;2024-03-17T10:19:22;15.37;;;10.93;;
23416;SDS011;11881;42.432;25.632;2024-03-17T10:21:49;18.50;;;12.63;;
23416;SDS011;11881;42.432;25.632;2024-03-17T10:24:23;15.47;;;11.77;;
23416;SDS011;11881;42.432;25.632;2024-03-17T10:26:54;15.53;;;11.43;;
23416;SDS011;11881;42.432;25.632;2024-03-17T10:34:30;16.27;;;12.13;;
23416;SDS011;11881;42.432;25.632;2024-03-17T10:37:07;21.70;;;11.57;;
23416;SDS011;11881;42.432;25.632;2024-03-17T10:39:40;13.87;;;10.67;;
23416;SDS011;11881;42.432;25.632;2024-03-17T10:42:08;16.23;;;11.27;;
23416;SDS011;11881;42.432;25.632;2024-03-17T10:44:36;14.23;;;10.80;;
23416;SDS011;11881;42.432;25.632;2024-03-17T10:47:06;16.73;;;10.87;;
23416;SDS011;11881;42.432;25.632;2024-03-17T10:49:40;17.30;;;11.27;;
23416;SDS011;11881;42.432;25.632;2024-03-17T10:52:11;16.60;;;10.30;;
23416;SDS011;11881;42.432;25.632;2024-03-17T10:54:44;15.37;;;10.50;;
23416;SDS011;11881;42.432;25.632;2024-03-17T10:59:52;15.87;;;10.27;;
23416;SDS011;11881;42.432;25.632;2024-03-17T11:04:49;10.73;;;8.77;;
23416;SDS011;11881;42.432;25.632;2024-03-17T11:07:17;11.57;;;8.73;;
23416;SDS011;11881;42.432;25.632;2024-03-17T11:09:44;13.33;;;9.00;;
23416;SDS011;11881;42.432;25.632;2024-03-17T11:17:50;11.83;;;8.67;;
23416;SDS011;11881;42.432;25.632;2024-03-17T11:20:28;14.90;;;10.23;;
23416;SDS011;11881;42.432;25.632;2024-03-17T11:22:57;12.87;;;9.53;;
23416;SDS011;11881;42.432;25.632;2024-03-17T11:27:56;13.47;;;8.87;;
23416;SDS011;11881;42.432;25.632;2024-03-17T11:38:53;12.60;;;8.57;;
23416;SDS011;11881;42.432;25.632;2024-03-17T11:46:50;12.03;;;9.30;;
23416;SDS011;11881;42.432;25.632;2024-03-17T11:49:23;12.57;;;8.83;;
23416;SDS011;11881;42.432;25.632;2024-03-17T11:51:55;8.17;;;7.30;;
23416;SDS011;11881;42.432;25.632;2024-03-17T11:54:35;9.83;;;8.27;;
23416;SDS011;11881;42.432;25.632;2024-03-17T11:57:02;10.83;;;8.60;;
23416;SDS011;11881;42.432;25.632;2024-03-17T11:59:30;9.60;;;7.60;;
23416;SDS011;11881;42.432;25.632;2024-03-17T12:01:57;8.97;;;7.30;;
23416;SDS011;11881;42.432;25.632;2024-03-17T12:04:23;10.43;;;7.30;;
23416;SDS011;11881;42.432;25.632;2024-03-17T12:09:19;9.93;;;8.00;;
23416;SDS011;11881;42.432;25.632;2024-03-17T12:11:50;8.57;;;7.13;;
23416;SDS011;11881;42.432;25.632;2024-03-17T12:14:26;9.83;;;7.43;;
23416;SDS011;11881;42.432;25.632;2024-03-17T12:16:52;10.03;;;7.23;;
23416;SDS011;11881;42.432;25.632;2024-03-17T12:19:22;10.53;;;8.70;;
23416;SDS011;11881;42.432;25.632;2024-03-17T12:21:50;9.77;;;8.40;;
23416;SDS011;11881;42.432;25.632;2024-03-17T12:24:18;11.57;;;8.97;;
23416;SDS011;11881;42.432;25.632;2024-03-17T12:26:45;10.13;;;8.40;;
23416;SDS011;11881;42.432;25.632;2024-03-17T12:29:25;9.97;;;7.57;;
23416;SDS011;11881;42.432;25.632;2024-03-17T12:31:55;10.67;;;7.57;;
23416;SDS011;11881;42.432;25.632;2024-03-17T12:34:21;10.47;;;8.03;;
23416;SDS011;11881;42.432;25.632;2024-03-17T12:36:49;14.90;;;9.23;;
23416;SDS011;11881;42.432;25.632;2024-03-17T12:39:25;11.23;;;8.47;;
23416;SDS011;11881;42.432;25.632;2024-03-17T12:42:03;11.10;;;8.60;;
23416;SDS011;11881;42.432;25.632;2024-03-17T12:44:53;10.77;;;8.57;;
23416;SDS011;11881;42.432;25.632;2024-03-17T12:47:21;12.43;;;9.43;;
23416;SDS011;11881;42.432;25.632;2024-03-17T12:49:48;13.70;;;9.20;;
23416;SDS011;11881;42.432;25.632;2024-03-17T12:55:03;14.20;;;10.03;;
23416;SDS011;11881;42.432;25.632;2024-03-17T12:57:52;12.80;;;9.97;;
23416;SDS011;11881;42.432;25.632;2024-03-17T13:00:46;13.13;;;9.90;;
23416;SDS011;11881;42.432;25.632;2024-03-17T13:03:34;12.93;;;9.80;;
23416;SDS011;11881;42.432;25.632;2024-03-17T13:06:01;13.13;;;10.27;;
23416;SDS011;11881;42.432;25.632;2024-03-17T13:08:29;14.40;;;10.40;;
23416;SDS011;11881;42.432;25.632;2024-03-17T13:10:56;12.23;;;10.00;;
23416;SDS011;11881;42.432;25.632;2024-03-17T13:13:22;12.40;;;9.63;;
23416;SDS011;11881;42.432;25.632;2024-03-17T13:15:47;13.83;;;10.00;;
23416;SDS011;11881;42.432;25.632;2024-03-17T13:18:16;11.83;;;9.97;;
23416;SDS011;11881;42.432;25.632;2024-03-17T13:20:46;11.97;;;9.00;;
23416;SDS011;11881;42.432;25.632;2024-03-17T13:23:15;13.00;;;9.87;;
23416;SDS011;11881;42.432;25.632;2024-03-17T13:25:40;11.53;;;9.10;;
23416;SDS011;11881;42.432;25.632;2024-03-17T13:28:08;16.50;;;10.10;;
23416;SDS011;11881;42.432;25.632;2024-03-17T13:30:35;12.17;;;9.53;;
23416;SDS011;11881;42.432;25.632;2024-03-17T13:33:01;14.00;;;9.70;;
23416;SDS011;11881;42.432;25.632;2024-03-17T13:35:33;12.00;;;8.67;;
23416;SDS011;11881;42.432;25.632;2024-03-17T13:38:00;10.23;;;8.50;;
23416;SDS011;11881;42.432;25.632;2024-03-17T13:40:28;11.37;;;9.10;;
23416;SDS011;11881;42.432;25.632;2024-03-17T13:42:54;13.80;;;10.20;;
23416;SDS011;11881;42.432;25.632;2024-03-17T13:45:22;12.87;;;9.50;;
23416;SDS011;11881;42.432;25.632;2024-03-17T13:47:55;10.70;;;9.20;;
23416;SDS011;11881;42.432;25.632;2024-03-17T13:50:22;12.17;;;10.10;;
23416;SDS011;11881;42.432;25.632;2024-03-17T13:52:48;13.53;;;8.80;;
23416;SDS011;11881;42.432;25.632;2024-03-17T13:55:17;11.80;;;9.00;;
23416;SDS011;11881;42.432;25.632;2024-03-17T13:57:45;11.37;;;9.70;;
23416;SDS011;11881;42.432;25.632;2024-03-17T14:00:14;13.37;;;9.33;;
23416;SDS011;11881;42.432;25.632;2024-03-17T14:02:47;13.23;;;9.30;;
23416;SDS011;11881;42.432;25.632;2024-03-17T14:05:16;10.93;;;8.80;;
23416;SDS011;11881;42.432;25.632;2024-03-17T14:07:42;13.90;;;9.77;;
23416;SDS011;11881;42.432;25.632;2024-03-17T14:10:11;16.50;;;11.27;;
23416;SDS011;11881;42.432;25.632;2024-03-17T14:12:38;16.47;;;11.00;;
23416;SDS011;11881;42.432;25.632;2024-03-17T14:15:04;27.83;;;16.00;;
23416;SDS011;11881;42.432;25.632;2024-03-17T14:17:31;31.00;;;18.47;;
23416;SDS011;11881;42.432;25.632;2024-03-17T14:19:57;33.43;;;21.90;;
23416;SDS011;11881;42.432;25.632;2024-03-17T14:22:23;21.73;;;13.87;;
23416;SDS011;11881;42.432;25.632;2024-03-17T14:24:48;15.83;;;11.90;;
23416;SDS011;11881;42.432;25.632;2024-03-17T14:27:15;14.80;;;11.67;;
23416;SDS011;11881;42.432;25.632;2024-03-17T14:29:41;15.70;;;11.07;;
23416;SDS011;11881;42.432;25.632;2024-03-17T14:32:07;14.37;;;10.43;;
23416;SDS011;11881;42.432;25.632;2024-03-17T14:34:32;13.47;;;10.53;;
23416;SDS011;11881;42.432;25.632;2024-03-17T14:37:01;13.87;;;10.63;;
23416;SDS011;11881;42.432;25.632;2024-03-17T14:39:27;13.07;;;10.43;;
23416;SDS011;11881;42.432;25.632;2024-03-17T14:41:54;15.50;;;10.87;;
23416;SDS011;11881;42.432;25.632;2024-03-17T14:44:20;11.33;;;9.50;;
23416;SDS011;11881;42.432;25.632;2024-03-17T14:46:46;12.43;;;10.30;;
23416;SDS011;11881;42.432;25.632;2024-03-17T14:49:11;14.67;;;10.93;;
23416;SDS011;11881;42.432;25.632;2024-03-17T14:51:36;17.53;;;11.20;;
23416;SDS011;11881;42.432;25.632;2024-03-17T14:54:02;15.40;;;11.80;;
23416;SDS011;11881;42.432;25.632;2024-03-17T14:56:28;16.10;;;12.10;;
23416;SDS011;11881;42.432;25.632;2024-03-17T14:58:54;15.20;;;13.03;;
23416;SDS011;11881;42.432;25.632;2024-03-17T15:01:20;16.43;;;12.33;;